EGPD

Aberdeen Dyce Airport

Aberdeen, United Kingdom
METAR EGPD 220020Z AUTO VRB03KT 9999 BKN011 01/00 Q1027 TEMPO SCT011
Observed Flight Rules
Feb-22 @ 00:20 UTC (4 hours ago) Marginal Visual Flight Rules
Wind Visibility Clouds
Variable at 3 knots 10,000+ meters
  • Broken at 1,100' AGL
Temperatures Readings
Current 1°C / 34°F
Dewpoint 0°C / 32°F
Humidity 93%
Altimeter 30.32" Hg
Pressure 1027 hPa
Elevation 65
METAR EGPD 220020Z AUTO VRB03KT 9999 BKN011 01/00 Q1027 TEMPO SCT011
Observed Flight Rules
Feb-22 @ 00:20 UTC
(4 hours ago)
MVFR
Wind Visibility
Variable at 3 knots 10,000+ meters
Clouds
  • Broken at 1,100' AGL
Temperature Dewpoint
1°C / 34°F 0°C / 32°F
Humidity Altimeter Pressure
93% 30.32" Hg 1027 hPa